createdAt,value
2023-04-09T00:01:10.630Z,57.33
2023-04-09T00:03:57.616Z,57.31
2023-04-09T00:06:44.503Z,57.17
2023-04-09T00:09:32.267Z,57.45
2023-04-09T00:12:19.174Z,57.07
2023-04-09T00:15:07.512Z,57.38
2023-04-09T00:17:56.276Z,57.42
2023-04-09T00:20:43.933Z,57.27
2023-04-09T00:23:30.750Z,57.17
2023-04-09T00:26:17.593Z,57.43
2023-04-09T00:29:04.449Z,57.28
2023-04-09T00:31:51.389Z,57.30
2023-04-09T00:34:38.854Z,57.44
2023-04-09T00:37:25.708Z,57.28
2023-04-09T00:40:12.642Z,57.33
2023-04-09T00:42:59.504Z,57.34
2023-04-09T00:45:46.378Z,57.38
2023-04-09T00:48:33.551Z,57.32
2023-04-09T00:51:20.620Z,57.19
2023-04-09T00:54:07.598Z,57.22
2023-04-09T00:56:56.103Z,57.25
2023-04-09T00:59:43.778Z,57.37
2023-04-09T01:02:31.288Z,57.44
2023-04-09T01:05:18.975Z,57.47
2023-04-09T01:08:16.508Z,57.43
2023-04-09T01:11:35.061Z,57.42
2023-04-09T01:14:50.007Z,57.42
2023-04-09T01:18:06.523Z,57.39
2023-04-09T01:21:00.978Z,57.15
2023-04-09T01:24:10.016Z,57.23
2023-04-09T01:27:07.720Z,57.39
2023-04-09T01:29:54.837Z,57.32
2023-04-09T01:32:42.541Z,57.10
2023-04-09T01:35:29.836Z,57.16
2023-04-09T01:38:18.762Z,56.97
2023-04-09T01:41:07.406Z,57.29
2023-04-09T01:43:54.752Z,57.32
2023-04-09T01:46:41.847Z,57.13
2023-04-09T01:49:29.368Z,57.29
2023-04-09T01:52:16.227Z,57.24
2023-04-09T01:55:03.108Z,57.11
2023-04-09T01:57:49.961Z,57.10
2023-04-09T02:00:39.952Z,57.29
2023-04-09T02:03:31.151Z,57.38
2023-04-09T02:06:32.573Z,57.01
2023-04-09T02:09:20.772Z,57.25
2023-04-09T02:12:11.710Z,57.08
2023-04-09T02:14:59.305Z,56.98
2023-04-09T02:17:46.486Z,57.13
2023-04-09T02:20:33.492Z,57.12
2023-04-09T02:23:20.607Z,57.17
2023-04-09T02:26:07.439Z,56.99
2023-04-09T02:28:54.493Z,57.02
2023-04-09T02:31:41.652Z,56.88
2023-04-09T02:34:28.514Z,57.00
2023-04-09T02:37:15.453Z,57.04
2023-04-09T02:40:02.275Z,56.96
2023-04-09T02:42:49.086Z,56.97
2023-04-09T02:45:36.245Z,56.75
2023-04-09T02:48:23.186Z,56.99
2023-04-09T02:51:10.033Z,56.90
2023-04-09T02:53:56.929Z,56.63
2023-04-09T02:56:43.868Z,56.92
2023-04-09T02:59:32.927Z,56.92
2023-04-09T03:02:19.928Z,56.92
2023-04-09T03:05:07.361Z,56.61
2023-04-09T03:07:54.482Z,56.50
2023-04-09T03:10:41.360Z,57.13
2023-04-09T03:13:28.458Z,56.86
2023-04-09T03:16:15.404Z,56.68
2023-04-09T03:19:02.246Z,56.69
2023-04-09T03:21:49.361Z,56.71
2023-04-09T03:24:36.257Z,56.55
2023-04-09T03:27:23.165Z,56.67
2023-04-09T03:30:10.589Z,56.43
2023-04-09T03:32:58.909Z,56.72
2023-04-09T03:35:46.097Z,56.60
2023-04-09T03:38:32.997Z,56.46
2023-04-09T03:41:19.822Z,56.60
2023-04-09T03:44:06.675Z,56.41
2023-04-09T03:46:53.699Z,56.49
2023-04-09T03:49:40.661Z,56.52
2023-04-09T03:52:27.506Z,56.45
2023-04-09T03:55:14.330Z,56.09
2023-04-09T03:58:01.222Z,56.33
2023-04-09T04:00:48.760Z,56.28
2023-04-09T04:03:35.906Z,56.16
2023-04-09T04:06:22.960Z,56.41
2023-04-09T04:09:09.806Z,56.25
2023-04-09T04:11:58.785Z,56.29
2023-04-09T04:14:45.773Z,56.33
2023-04-09T04:17:32.597Z,56.36
2023-04-09T04:20:19.749Z,56.65
2023-04-09T04:23:06.686Z,56.22
2023-04-09T04:25:53.604Z,56.16
2023-04-09T04:28:40.827Z,56.45
2023-04-09T04:31:27.700Z,56.22
2023-04-09T04:34:14.551Z,56.15
2023-04-09T04:37:01.397Z,56.53
2023-04-09T04:39:48.204Z,56.21
2023-04-09T04:42:35.553Z,56.25
2023-04-09T04:45:22.468Z,56.12
2023-04-09T04:48:09.286Z,56.21
2023-04-09T04:51:01.328Z,56.26
2023-04-09T04:53:48.150Z,56.02
2023-04-09T04:56:35.030Z,56.08
2023-04-09T04:59:21.860Z,56.18
2023-04-09T05:02:09.253Z,56.20
2023-04-09T05:04:56.343Z,55.98
2023-04-09T05:07:43.296Z,56.06
2023-04-09T05:10:30.848Z,56.04
2023-04-09T05:13:17.830Z,56.08
2023-04-09T05:16:04.888Z,56.47
2023-04-09T05:18:52.010Z,55.84
2023-04-09T05:21:39.238Z,56.16
2023-04-09T05:24:26.523Z,56.03
2023-04-09T05:27:13.393Z,56.24
2023-04-09T05:30:01.052Z,56.33
2023-04-09T05:32:48.160Z,56.40
2023-04-09T05:35:39.229Z,55.92
2023-04-09T05:38:26.115Z,56.07
2023-04-09T05:41:13.269Z,56.26
2023-04-09T05:44:01.012Z,56.08
2023-04-09T05:46:48.013Z,56.19
2023-04-09T05:49:34.871Z,56.56
2023-04-09T05:52:22.043Z,56.34
2023-04-09T05:55:09.854Z,55.81
2023-04-09T05:57:57.209Z,55.77
2023-04-09T06:00:44.097Z,56.00
2023-04-09T06:03:31.111Z,56.34
2023-04-09T06:06:18.096Z,56.00
2023-04-09T06:09:05.230Z,56.66
2023-04-09T06:11:52.094Z,56.35
2023-04-09T06:14:39.307Z,56.42
2023-04-09T06:17:26.140Z,56.78
2023-04-09T06:20:12.991Z,56.36
2023-04-09T06:22:59.823Z,56.70
2023-04-09T06:25:46.715Z,56.41
2023-04-09T06:28:33.557Z,56.66
2023-04-09T06:31:21.060Z,56.62
2023-04-09T06:34:08.069Z,56.59
2023-04-09T06:36:54.887Z,56.66
2023-04-09T06:39:44.976Z,56.56
2023-04-09T06:42:44.872Z,56.78
2023-04-09T06:45:32.554Z,56.56
2023-04-09T06:48:19.378Z,56.47
2023-04-09T06:51:07.409Z,56.43
2023-04-09T06:53:54.408Z,56.67
2023-04-09T06:56:42.043Z,56.72
2023-04-09T06:59:28.952Z,56.63
2023-04-09T07:02:16.198Z,56.69
2023-04-09T07:05:04.221Z,56.62
2023-04-09T07:07:51.162Z,56.86
2023-04-09T07:10:38.209Z,56.97
2023-04-09T07:13:25.352Z,56.60
2023-04-09T07:16:12.233Z,56.92
2023-04-09T07:18:59.153Z,56.74
2023-04-09T07:21:46.058Z,56.82
2023-04-09T07:24:32.966Z,57.23
2023-04-09T07:27:21.386Z,57.03
2023-04-09T07:30:08.980Z,57.10
2023-04-09T07:32:56.150Z,56.87
2023-04-09T07:35:43.074Z,56.86
2023-04-09T07:38:30.381Z,57.26
2023-04-09T07:41:17.723Z,57.33
2023-04-09T07:44:06.343Z,57.44
2023-04-09T07:46:53.332Z,57.11
2023-04-09T07:49:40.225Z,57.13
2023-04-09T07:52:27.285Z,57.33
2023-04-09T07:55:14.573Z,57.27
2023-04-09T07:58:01.946Z,57.56
2023-04-09T08:00:48.942Z,57.44
2023-04-09T08:03:36.807Z,57.35
2023-04-09T08:06:24.071Z,57.53
2023-04-09T08:09:11.115Z,57.62
2023-04-09T08:11:57.974Z,57.28
2023-04-09T08:14:44.843Z,57.53
2023-04-09T08:17:31.714Z,57.46
2023-04-09T08:20:18.725Z,57.46
2023-04-09T08:23:05.559Z,57.40
2023-04-09T08:25:52.451Z,57.32
2023-04-09T08:28:39.280Z,57.42
2023-04-09T08:31:26.400Z,57.57
2023-04-09T08:34:15.200Z,57.49
2023-04-09T08:37:02.505Z,57.66
2023-04-09T08:39:49.350Z,57.62
2023-04-09T08:42:37.455Z,57.67
2023-04-09T08:45:24.367Z,57.71
2023-04-09T08:48:13.652Z,57.60
2023-04-09T08:51:00.603Z,57.42
2023-04-09T08:53:52.583Z,57.63
2023-04-09T08:56:39.466Z,57.47
2023-04-09T08:59:26.294Z,57.60
2023-04-09T09:02:13.397Z,57.62
2023-04-09T09:05:00.925Z,57.75
2023-04-09T09:07:54.773Z,57.55
2023-04-09T09:10:43.951Z,57.54
2023-04-09T09:13:30.873Z,57.85
2023-04-09T09:16:18.456Z,57.16
2023-04-09T09:19:05.910Z,57.27
2023-04-09T09:22:01.474Z,57.43
2023-04-09T09:24:52.728Z,57.26
2023-04-09T09:27:40.577Z,57.12
2023-04-09T09:30:27.649Z,57.37
2023-04-09T09:33:14.594Z,57.35
2023-04-09T09:36:03.747Z,57.30
2023-04-09T09:38:55.222Z,57.05
2023-04-09T09:41:42.430Z,57.13
2023-04-09T09:44:33.275Z,57.21
2023-04-09T09:47:21.546Z,57.01
2023-04-09T09:50:08.973Z,57.19
2023-04-09T09:53:03.197Z,57.10
2023-04-09T09:55:52.524Z,57.17
2023-04-09T09:58:50.077Z,56.86
2023-04-09T10:01:37.935Z,56.98
2023-04-09T10:04:27.989Z,57.10
2023-04-09T10:07:16.188Z,56.81
2023-04-09T10:10:03.584Z,57.19
2023-04-09T10:12:51.272Z,57.35
2023-04-09T10:15:38.433Z,57.21
2023-04-09T10:18:25.383Z,57.16
2023-04-09T10:21:25.083Z,57.17
2023-04-09T10:24:12.056Z,56.92
2023-04-09T10:27:15.710Z,57.05
2023-04-09T10:30:05.336Z,57.09
2023-04-09T10:32:53.355Z,57.28
2023-04-09T10:35:40.497Z,56.89
2023-04-09T10:38:34.891Z,57.28
2023-04-09T10:41:25.420Z,57.20
2023-04-09T10:44:22.853Z,57.17
2023-04-09T10:47:10.650Z,56.94
2023-04-09T10:49:57.476Z,56.71
2023-04-09T10:52:44.570Z,56.95
2023-04-09T10:55:41.822Z,57.06
2023-04-09T10:58:28.629Z,56.56
2023-04-09T11:01:22.447Z,56.88
2023-04-09T11:04:16.977Z,56.57
2023-04-09T11:07:06.338Z,56.47
2023-04-09T11:09:53.391Z,56.59
2023-04-09T11:12:40.232Z,56.29
2023-04-09T11:15:27.315Z,56.24
2023-04-09T11:18:25.556Z,56.48
2023-04-09T11:21:13.503Z,56.53
2023-04-09T11:24:00.909Z,56.39
2023-04-09T11:26:49.104Z,56.54
2023-04-09T11:29:36.781Z,56.68
2023-04-09T11:32:30.255Z,56.96
2023-04-09T11:35:19.330Z,57.03
2023-04-09T11:38:08.084Z,57.58
2023-04-09T11:40:57.569Z,57.56
2023-04-09T11:43:44.595Z,57.61
2023-04-09T11:46:32.701Z,56.96
2023-04-09T11:49:19.844Z,57.21
2023-04-09T11:52:06.900Z,57.50
2023-04-09T11:54:53.791Z,57.19
2023-04-09T11:57:47.225Z,56.93
2023-04-09T12:00:34.133Z,57.07
2023-04-09T12:03:31.143Z,57.33
2023-04-09T12:06:20.694Z,57.09
2023-04-09T12:09:08.758Z,56.65
2023-04-09T12:11:56.599Z,56.89
2023-04-09T12:14:47.300Z,57.07
2023-04-09T12:17:34.338Z,56.34
2023-04-09T12:20:32.130Z,56.66
2023-04-09T12:23:19.515Z,56.76
2023-04-09T12:26:06.341Z,56.73
2023-04-09T12:28:53.350Z,56.73
2023-04-09T12:31:40.362Z,56.14
2023-04-09T12:34:27.537Z,56.74
2023-04-09T12:37:14.346Z,56.21
2023-04-09T12:40:01.352Z,55.83
2023-04-09T12:42:48.236Z,56.17
2023-04-09T12:45:35.085Z,56.58
2023-04-09T12:48:21.992Z,56.63
2023-04-09T12:51:11.423Z,56.07
2023-04-09T12:53:58.301Z,55.71
2023-04-09T12:56:45.993Z,56.16
2023-04-09T12:59:32.999Z,56.11
2023-04-09T13:02:21.558Z,55.98
2023-04-09T13:05:08.650Z,56.33
2023-04-09T13:07:55.463Z,55.67
2023-04-09T13:10:42.326Z,56.06
2023-04-09T13:13:29.799Z,55.45
2023-04-09T13:16:16.900Z,55.57
2023-04-09T13:19:03.838Z,56.14
2023-04-09T13:21:50.651Z,55.48
2023-04-09T13:24:38.292Z,55.36
2023-04-09T13:27:25.449Z,55.64
2023-04-09T13:30:12.749Z,55.72
2023-04-09T13:32:59.652Z,55.68
2023-04-09T13:35:46.779Z,55.09
2023-04-09T13:38:33.637Z,55.69
2023-04-09T13:41:20.697Z,55.59
2023-04-09T13:44:07.762Z,55.73
2023-04-09T13:46:54.787Z,55.04
2023-04-09T13:49:42.207Z,55.21
2023-04-09T13:52:29.745Z,55.31
2023-04-09T13:55:16.969Z,55.13
2023-04-09T13:58:03.819Z,55.01
2023-04-09T14:00:50.833Z,55.20
2023-04-09T14:03:41.717Z,55.29
2023-04-09T14:06:28.603Z,54.83
2023-04-09T14:09:15.635Z,55.08
2023-04-09T14:12:02.627Z,54.81
2023-04-09T14:14:50.063Z,54.64
2023-04-09T14:17:36.967Z,55.25
2023-04-09T14:20:24.692Z,55.15
2023-04-09T14:23:11.685Z,55.06
2023-04-09T14:25:58.601Z,54.77
2023-04-09T14:28:47.184Z,54.62
2023-04-09T14:31:34.068Z,54.83
2023-04-09T14:34:21.112Z,54.40
2023-04-09T14:37:08.342Z,54.83
2023-04-09T14:39:55.662Z,54.23
2023-04-09T14:42:42.544Z,54.02
2023-04-09T14:45:30.646Z,54.27
2023-04-09T14:48:17.914Z,54.21
2023-04-09T14:51:05.756Z,54.41
2023-04-09T14:53:52.895Z,53.91
2023-04-09T14:56:39.811Z,54.30
2023-04-09T14:59:26.980Z,53.83
2023-04-09T15:02:14.038Z,54.04
2023-04-09T15:05:01.908Z,54.33
2023-04-09T15:07:48.904Z,54.18
2023-04-09T15:10:39.217Z,54.01
2023-04-09T15:13:26.020Z,54.18
2023-04-09T15:16:21.722Z,53.96
2023-04-09T15:19:08.535Z,54.18
2023-04-09T15:21:56.308Z,53.56
2023-04-09T15:24:43.179Z,53.58
2023-04-09T15:27:30.232Z,53.22
2023-04-09T15:30:17.045Z,53.01
2023-04-09T15:33:04.661Z,53.24
2023-04-09T15:35:51.611Z,53.27
2023-04-09T15:38:38.535Z,52.81
2023-04-09T15:41:26.864Z,52.67
2023-04-09T15:44:13.738Z,52.79
2023-04-09T15:47:00.558Z,52.71
2023-04-09T15:49:47.381Z,52.33
2023-04-09T15:52:34.245Z,52.69
2023-04-09T15:55:22.467Z,52.15
2023-04-09T15:58:09.418Z,52.39
2023-04-09T16:00:56.359Z,52.27
2023-04-09T16:03:43.259Z,52.14
2023-04-09T16:06:30.259Z,52.28
2023-04-09T16:09:17.118Z,52.59
2023-04-09T16:12:04.105Z,52.76
2023-04-09T16:14:51.454Z,52.57
2023-04-09T16:17:40.646Z,52.07
2023-04-09T16:20:29.362Z,51.90
2023-04-09T16:23:16.269Z,52.46
2023-04-09T16:26:03.196Z,52.24
2023-04-09T16:28:50.153Z,52.27
2023-04-09T16:31:37.772Z,52.40
2023-04-09T16:34:24.965Z,52.20
2023-04-09T16:37:11.857Z,52.07
2023-04-09T16:39:58.945Z,51.86
2023-04-09T16:42:45.758Z,51.71
2023-04-09T16:45:32.903Z,51.62
2023-04-09T16:48:19.961Z,51.42
2023-04-09T16:51:06.910Z,51.56
2023-04-09T16:53:53.798Z,51.59
2023-04-09T16:56:40.813Z,51.34
2023-04-09T16:59:27.660Z,51.23
2023-04-09T17:02:14.539Z,51.00
2023-04-09T17:05:01.361Z,50.97
2023-04-09T17:07:48.257Z,51.45
2023-04-09T17:10:36.882Z,51.33
2023-04-09T17:13:23.753Z,51.20
2023-04-09T17:16:14.306Z,51.44
2023-04-09T17:19:01.127Z,51.36
2023-04-09T17:21:47.989Z,51.50
2023-04-09T17:24:36.867Z,51.05
2023-04-09T17:27:23.696Z,51.37
2023-04-09T17:30:12.005Z,51.10
2023-04-09T17:32:59.246Z,50.83
2023-04-09T17:35:46.223Z,51.27
2023-04-09T17:38:33.124Z,51.10
2023-04-09T17:41:20.004Z,51.03
2023-04-09T17:44:07.181Z,51.21
2023-04-09T17:46:54.231Z,50.89
2023-04-09T17:49:41.185Z,51.15
2023-04-09T17:52:28.143Z,50.99
2023-04-09T17:55:15.448Z,50.96
2023-04-09T17:58:03.302Z,51.28
2023-04-09T18:00:50.205Z,50.79
2023-04-09T18:03:37.261Z,51.62
2023-04-09T18:06:24.389Z,51.16
2023-04-09T18:09:12.774Z,51.65
2023-04-09T18:12:01.368Z,51.28
2023-04-09T18:14:50.420Z,51.75
2023-04-09T18:17:37.397Z,51.75
2023-04-09T18:20:24.330Z,51.58
2023-04-09T18:23:11.233Z,52.04
2023-04-09T18:25:58.092Z,52.15
2023-04-09T18:28:44.925Z,52.44
2023-04-09T18:31:31.980Z,52.12
2023-04-09T18:34:19.996Z,52.55
2023-04-09T18:37:08.712Z,52.54
2023-04-09T18:39:55.646Z,52.48
2023-04-09T18:42:42.470Z,52.76
2023-04-09T18:45:29.438Z,52.86
2023-04-09T18:48:18.016Z,53.05
2023-04-09T18:51:05.075Z,53.05
2023-04-09T18:53:54.537Z,52.56
2023-04-09T18:56:41.338Z,53.16
2023-04-09T18:59:28.437Z,53.21
2023-04-09T19:02:15.482Z,53.30
2023-04-09T19:05:03.139Z,53.08
2023-04-09T19:07:50.021Z,53.08
2023-04-09T19:10:36.881Z,53.04
2023-04-09T19:13:23.787Z,52.92
2023-04-09T19:16:10.705Z,53.40
2023-04-09T19:18:57.586Z,53.33
2023-04-09T19:21:44.409Z,53.12
2023-04-09T19:24:31.589Z,53.67
2023-04-09T19:27:19.431Z,53.39
2023-04-09T19:30:06.778Z,53.36
2023-04-09T19:32:53.918Z,53.80
2023-04-09T19:35:41.067Z,53.48
2023-04-09T19:38:27.942Z,53.93
2023-04-09T19:41:14.819Z,53.89
2023-04-09T19:44:01.735Z,53.97
2023-04-09T19:46:48.656Z,53.61
2023-04-09T19:49:35.581Z,53.59
2023-04-09T19:52:22.425Z,53.58
2023-04-09T19:55:09.733Z,53.82
2023-04-09T19:57:56.687Z,53.90
2023-04-09T20:00:44.633Z,53.79
2023-04-09T20:03:32.019Z,53.79
2023-04-09T20:06:19.103Z,54.19
2023-04-09T20:09:06.064Z,54.26
2023-04-09T20:11:53.888Z,54.24
2023-04-09T20:14:40.819Z,53.99
2023-04-09T20:17:27.675Z,53.83
2023-04-09T20:20:14.699Z,53.61
2023-04-09T20:23:01.823Z,53.81
2023-04-09T20:25:53.725Z,53.43
2023-04-09T20:28:41.131Z,54.24
2023-04-09T20:31:28.605Z,54.06
2023-04-09T20:34:15.718Z,54.21
2023-04-09T20:37:05.466Z,53.43
2023-04-09T20:39:52.408Z,54.11
2023-04-09T20:42:40.845Z,53.31
2023-04-09T20:45:27.728Z,53.50
2023-04-09T20:48:14.895Z,54.17
2023-04-09T20:51:03.797Z,53.89
2023-04-09T20:53:50.803Z,53.77
2023-04-09T20:56:37.992Z,53.63
2023-04-09T20:59:25.001Z,54.05
2023-04-09T21:02:14.889Z,53.97
2023-04-09T21:05:11.655Z,53.75
2023-04-09T21:08:06.239Z,53.78
2023-04-09T21:10:53.087Z,54.42
2023-04-09T21:13:53.195Z,53.58
2023-04-09T21:16:41.837Z,54.30
2023-04-09T21:19:28.763Z,53.78
2023-04-09T21:22:15.642Z,53.97
2023-04-09T21:25:03.417Z,54.38
2023-04-09T21:27:50.646Z,54.29
2023-04-09T21:30:38.104Z,54.51
2023-04-09T21:33:26.032Z,54.00
2023-04-09T21:36:13.634Z,54.47
2023-04-09T21:39:01.534Z,53.86
2023-04-09T21:41:49.655Z,53.89
2023-04-09T21:44:36.547Z,54.20
2023-04-09T21:47:23.714Z,54.10
2023-04-09T21:50:11.077Z,53.92
2023-04-09T21:52:58.125Z,54.39
2023-04-09T21:55:45.523Z,54.62
2023-04-09T21:58:32.380Z,54.43
2023-04-09T22:01:28.726Z,54.75
2023-04-09T22:04:16.122Z,54.01
2023-04-09T22:07:03.390Z,54.35
2023-04-09T22:09:50.415Z,53.98
2023-04-09T22:12:37.435Z,54.35
2023-04-09T22:15:24.331Z,54.11
2023-04-09T22:18:11.390Z,54.82
2023-04-09T22:20:58.244Z,54.56
2023-04-09T22:23:45.084Z,54.67
2023-04-09T22:26:32.083Z,54.20
2023-04-09T22:29:19.102Z,54.40
2023-04-09T22:32:06.034Z,54.93
2023-04-09T22:34:53.607Z,54.86
2023-04-09T22:37:40.477Z,54.17
2023-04-09T22:40:27.294Z,54.31
2023-04-09T22:43:14.516Z,54.48
2023-04-09T22:46:02.130Z,54.36
2023-04-09T22:48:49.729Z,54.79
2023-04-09T22:51:36.793Z,54.79
2023-04-09T22:54:24.866Z,54.40
2023-04-09T22:57:11.779Z,54.42
2023-04-09T22:59:58.585Z,54.73
2023-04-09T23:02:47.563Z,55.03
2023-04-09T23:05:34.602Z,54.61
2023-04-09T23:08:21.429Z,54.48
2023-04-09T23:11:08.407Z,54.72
2023-04-09T23:13:55.350Z,55.00
2023-04-09T23:16:42.165Z,55.03
2023-04-09T23:19:29.003Z,54.70
2023-04-09T23:22:15.916Z,54.59
2023-04-09T23:25:03.093Z,55.10
2023-04-09T23:27:49.927Z,55.41
2023-04-09T23:30:37.012Z,55.00
2023-04-09T23:33:23.960Z,55.46
2023-04-09T23:36:10.902Z,55.06
2023-04-09T23:38:57.761Z,54.70
2023-04-09T23:41:44.694Z,55.33
2023-04-09T23:44:32.383Z,54.93
2023-04-09T23:47:19.295Z,54.88
2023-04-09T23:50:07.618Z,55.54
2023-04-09T23:52:59.688Z,55.26
2023-04-09T23:55:47.864Z,55.02
2023-04-09T23:58:34.680Z,55.07
